Données. Loja

Actualisé: mercredi, 27 mai 2015 04:32 (heure officielle)
Ind. climatologique: 5582A -  Altitude (m): 594
Latitude37° 9' 40'' N - Longitude4° 9' 10'' O -  PositionVoir localisation
MunicipioLoja (Granada) - Ver predicción
Registros - de
Fecha y hora oficial

 

Temp. (°C)

 

Vit. vent (km/h)

 

Dir. vent

 

Rafale (km/h)

 

Dir. rafale

 

Prec. (mm)

 

Pression (hPa)

 

Tend. (hPa)

 

Humidité (%)

 

27/05/2015 04:00 16.0 2 4-EstEst 12 4-EstEst 0.0 947.4 -0.6 53
27/05/2015 03:00 16.1 0 1-CalmeCalme 5 6-SudSud 0.0 947.6 -0.3 52
27/05/2015 02:00 16.9 2 6-SudSud 6 7-Sud-OuestSud-Ouest 0.0 947.8 0.7 49
27/05/2015 01:00 18.0 4 8-OuestOuest 8 8-OuestOuest 0.0 948.0 1.5 46
27/05/2015 00:00 19.0 2 8-OuestOuest 15 9-Nord-OuestNord-Ouest 0.0 947.9 1.5 44
26/05/2015 23:00 19.2 7 9-Nord-OuestNord-Ouest 15 9-Nord-OuestNord-Ouest 0.0 947.1 1.1 44
26/05/2015 22:00 20.7 6 9-Nord-OuestNord-Ouest 18 8-OuestOuest 0.0 946.5 0.5 39
26/05/2015 21:00 24.9 7 8-OuestOuest 20 8-OuestOuest 0.0 946.4 0.1 29
26/05/2015 20:00 26.4 10 8-OuestOuest 30 9-Nord-OuestNord-Ouest 0.0 946.0 -0.7 27
26/05/2015 19:00 27.8 11 8-OuestOuest 26 8-OuestOuest 0.0 946.0 -0.8 27
26/05/2015 18:00 27.7 10 9-Nord-OuestNord-Ouest 28 9-Nord-OuestNord-Ouest 0.0 946.3 -1.1 27
26/05/2015 17:00 26.8 10 2-NordNord 25 2-NordNord 0.0 946.7 -1.2 28
26/05/2015 16:00 26.4 2 8-OuestOuest 22 9-Nord-OuestNord-Ouest 0.0 946.8 -1.7 28
26/05/2015 15:00 24.8 8 9-Nord-OuestNord-Ouest 22 9-Nord-OuestNord-Ouest 0.0 947.4 -1.6 32
26/05/2015 14:00 26.0 9 9-Nord-OuestNord-Ouest 21 9-Nord-OuestNord-Ouest 0.0 947.9 -1.1 31
26/05/2015 13:00 22.7 5 2-NordNord 13 2-NordNord 0.0 948.5 -0.8 37
26/05/2015 12:00 22.4 3 2-NordNord 13 3-Nord-EstNord-Est 0.0 949.0 0.0 43
26/05/2015 11:00 18.8 4 3-Nord-EstNord-Est 14 3-Nord-EstNord-Est 0.0 949.0 0.1 49
26/05/2015 10:00 17.0 5 3-Nord-EstNord-Est 14 4-EstEst 0.0 949.3 0.6 53
26/05/2015 09:00 14.1 6 3-Nord-EstNord-Est 18 3-Nord-EstNord-Est 0.0 949.0 0.6 61
26/05/2015 08:00 13.7 8 3-Nord-EstNord-Est 16 4-EstEst 0.0 948.9 0.3 64
26/05/2015 07:00 11.2 0 1-CalmeCalme 5 4-EstEst 0.0 948.7 -0.1 70
26/05/2015 06:00 11.5 0 1-CalmeCalme 5 5-Sud-EstSud-Est 0.0 948.4 -0.7 69
26/05/2015 05:00 11.8 0 1-CalmeCalme 4 4-EstEst 0.0 948.6 -0.6 67
First Page First Page First Page Last Page
Lineas por página
Página   de  
Partager:  
En esta página podrá acceder, en forma gráfica y en tabla, a las observaciones horarias de las últimas 24 horas, así como a los valores extremos y acumulados desde las 00 horas del día hasta la hora de actualización indicada, obtenidos en la red de estaciones de AEMET. También podrá acceder a los resúmenes diarios de estas estaciones en los últimos 7 días.

En el mapa aparecen estaciones con valor númerico y otras representadas por un punto. En las primeras, al pasar el ratón, aparece un desplegable con la información completa de la estación. Las estaciones representadas por un punto son estaciones de la red climatológica, con transmisión de datos superior a la hora, por lo que al seleccionarlas pueden no aparecer los últimos datos.

Los datos presentados han sido únicamente sometidos a controles automáticos de calidad en tiempo real, por lo que no puede garantizarse la ausencia de errores.
Toute utilisation et reproduction de l'information est autorisé sous réserve de mentionner AEMETen tant qu'auteur de celle-ci